createdAt,value
2022-10-25T00:00:53.415Z,14.65
2022-10-25T00:01:54.330Z,14.65
2022-10-25T00:02:54.245Z,14.64
2022-10-25T00:04:03.947Z,14.63
2022-10-25T00:04:54.035Z,14.62
2022-10-25T00:05:53.264Z,14.62
2022-10-25T00:06:54.229Z,14.61
2022-10-25T00:07:53.465Z,14.60
2022-10-25T00:08:53.363Z,14.59
2022-10-25T00:09:59.712Z,14.59
2022-10-25T00:10:53.242Z,14.58
2022-10-25T00:11:53.189Z,14.58
2022-10-25T00:12:54.166Z,14.58
2022-10-25T00:13:53.927Z,14.58
2022-10-25T00:14:53.821Z,14.59
2022-10-25T00:16:11.550Z,14.59
2022-10-25T00:16:53.091Z,14.60
2022-10-25T00:17:53.033Z,14.60
2022-10-25T00:18:52.997Z,14.60
2022-10-25T00:19:53.453Z,14.60
2022-10-25T00:20:59.931Z,14.61
2022-10-25T00:21:52.972Z,14.60
2022-10-25T00:22:53.080Z,14.60
2022-10-25T00:23:53.268Z,14.60
2022-10-25T00:24:53.276Z,14.60
2022-10-25T00:25:53.002Z,14.59
2022-10-25T00:26:59.238Z,14.59
2022-10-25T00:27:53.017Z,14.59
2022-10-25T00:28:52.920Z,14.58
2022-10-25T00:29:53.182Z,14.58
2022-10-25T00:30:52.951Z,14.58
2022-10-25T00:31:59.740Z,14.58
2022-10-25T00:32:54.628Z,14.57
2022-10-25T00:33:53.216Z,14.57
2022-10-25T00:34:53.632Z,14.57
2022-10-25T00:35:52.906Z,14.56
2022-10-25T00:36:59.196Z,14.56
2022-10-25T00:37:52.910Z,14.55
2022-10-25T00:38:52.829Z,14.54
2022-10-25T00:39:54.123Z,14.54
2022-10-25T00:40:53.664Z,14.53
2022-10-25T00:41:52.818Z,14.52
2022-10-25T00:42:59.346Z,14.51
2022-10-25T00:43:52.779Z,14.51
2022-10-25T00:44:52.702Z,14.50
2022-10-25T00:45:52.821Z,14.49
2022-10-25T00:46:52.653Z,14.48
2022-10-25T00:47:52.778Z,14.48
2022-10-25T00:48:59.090Z,14.47
2022-10-25T00:49:52.593Z,14.46
2022-10-25T00:50:52.619Z,14.45
2022-10-25T00:51:52.596Z,14.45
2022-10-25T00:52:52.663Z,14.44
2022-10-25T00:53:52.586Z,14.43
2022-10-25T00:54:58.826Z,14.42
2022-10-25T00:55:52.713Z,14.42
2022-10-25T00:56:52.880Z,14.41
2022-10-25T00:57:52.629Z,14.40
2022-10-25T00:58:52.646Z,14.39
2022-10-25T01:00:10.794Z,14.38
2022-10-25T01:00:52.607Z,14.37
2022-10-25T01:01:52.574Z,14.36
2022-10-25T01:02:52.539Z,14.35
2022-10-25T01:03:52.556Z,14.35
2022-10-25T01:04:58.706Z,14.34
2022-10-25T01:05:52.640Z,14.34
2022-10-25T01:06:53.384Z,14.35
2022-10-25T01:07:52.428Z,14.36
2022-10-25T01:08:52.379Z,14.37
2022-10-25T01:09:59.069Z,14.38
2022-10-25T01:10:52.450Z,14.40
2022-10-25T01:11:56.250Z,14.41
2022-10-25T01:12:52.474Z,14.43
2022-10-25T01:13:52.403Z,14.45
2022-10-25T01:14:52.300Z,14.46
2022-10-25T01:15:59.790Z,14.47
2022-10-25T01:16:52.360Z,14.47
2022-10-25T01:17:52.258Z,14.48
2022-10-25T01:18:53.372Z,14.48
2022-10-25T01:19:52.274Z,14.48
2022-10-25T01:20:58.525Z,14.48
2022-10-25T01:21:53.599Z,14.48
2022-10-25T01:22:52.762Z,14.49
2022-10-25T01:23:52.474Z,14.49
2022-10-25T01:24:52.589Z,14.50
2022-10-25T01:26:01.607Z,14.51
2022-10-25T01:26:58.528Z,14.52
2022-10-25T01:27:52.570Z,14.53
2022-10-25T01:28:52.201Z,14.54
2022-10-25T01:29:52.433Z,14.56
2022-10-25T01:30:53.149Z,14.57
2022-10-25T01:31:52.490Z,14.58
2022-10-25T01:32:58.377Z,14.60
2022-10-25T01:33:52.138Z,14.61
2022-10-25T01:34:52.071Z,14.62
2022-10-25T01:35:52.078Z,14.64
2022-10-25T01:36:52.244Z,14.66
2022-10-25T01:37:52.222Z,14.67
2022-10-25T01:38:58.425Z,14.69
2022-10-25T01:39:52.272Z,14.70
2022-10-25T01:40:52.112Z,14.71
2022-10-25T01:41:52.054Z,14.72
2022-10-25T01:42:52.527Z,14.73
2022-10-25T01:43:58.423Z,14.73
2022-10-25T01:44:52.008Z,14.74
2022-10-25T01:45:52.002Z,14.74
2022-10-25T01:46:51.912Z,14.75
2022-10-25T01:47:52.131Z,14.75
2022-10-25T01:48:51.839Z,14.75
2022-10-25T01:49:59.229Z,14.76
2022-10-25T01:50:52.152Z,14.76
2022-10-25T01:51:52.350Z,14.76
2022-10-25T01:52:51.961Z,14.76
2022-10-25T01:53:52.856Z,14.76
2022-10-25T01:54:59.664Z,14.77
2022-10-25T01:55:52.112Z,14.77
2022-10-25T01:56:51.892Z,14.78
2022-10-25T01:57:51.879Z,14.78
2022-10-25T01:58:51.781Z,14.78
2022-10-25T01:59:58.058Z,14.79
2022-10-25T02:00:52.508Z,14.79
2022-10-25T02:01:51.726Z,14.79
2022-10-25T02:02:52.035Z,14.78
2022-10-25T02:03:51.725Z,14.78
2022-10-25T02:04:58.317Z,14.78
2022-10-25T02:05:51.950Z,14.78
2022-10-25T02:06:52.696Z,14.77
2022-10-25T02:07:51.698Z,14.77
2022-10-25T02:08:51.668Z,14.77
2022-10-25T02:09:58.242Z,14.77
2022-10-25T02:10:51.645Z,14.77
2022-10-25T02:11:51.574Z,14.77
2022-10-25T02:12:51.660Z,14.77
2022-10-25T02:13:51.889Z,14.77
2022-10-25T02:14:58.040Z,14.77
2022-10-25T02:15:51.563Z,14.78
2022-10-25T02:16:51.514Z,14.78
2022-10-25T02:17:51.476Z,14.79
2022-10-25T02:18:51.496Z,14.80
2022-10-25T02:19:57.768Z,14.80
2022-10-25T02:20:52.699Z,14.81
2022-10-25T02:21:51.711Z,14.82
2022-10-25T02:22:51.477Z,14.83
2022-10-25T02:23:51.463Z,14.83
2022-10-25T02:24:51.681Z,14.84
2022-10-25T02:25:59.153Z,14.85
2022-10-25T02:26:51.985Z,14.85
2022-10-25T02:27:51.412Z,14.86
2022-10-25T02:28:51.487Z,14.86
2022-10-25T02:29:51.387Z,14.87
2022-10-25T02:30:51.479Z,14.88
2022-10-25T02:32:00.022Z,14.88
2022-10-25T02:32:51.409Z,14.89
2022-10-25T02:33:51.357Z,14.90
2022-10-25T02:34:51.329Z,14.90
2022-10-25T02:35:51.357Z,14.91
2022-10-25T02:36:51.258Z,14.91
2022-10-25T02:37:57.570Z,14.92
2022-10-25T02:38:51.358Z,14.92
2022-10-25T02:39:51.257Z,14.93
2022-10-25T02:40:51.500Z,14.93
2022-10-25T02:41:51.572Z,14.93
2022-10-25T02:42:57.791Z,14.93
2022-10-25T02:43:51.278Z,14.94
2022-10-25T02:44:52.313Z,14.94
2022-10-25T02:45:51.411Z,14.94
2022-10-25T02:46:52.146Z,14.95
2022-10-25T02:48:37.104Z,16.07
2022-10-25T02:49:37.539Z,15.63
2022-10-25T02:50:37.156Z,15.34
2022-10-25T02:51:37.061Z,15.18
2022-10-25T02:52:43.910Z,15.09
2022-10-25T02:53:37.095Z,15.04
2022-10-25T02:54:37.136Z,15.01
2022-10-25T02:55:37.104Z,15.00
2022-10-25T02:56:37.154Z,15.00
2022-10-25T02:57:44.401Z,15.00
2022-10-25T02:58:37.163Z,15.00
2022-10-25T02:59:37.162Z,15.00
2022-10-25T03:00:37.131Z,15.00
2022-10-25T03:01:37.104Z,15.00
2022-10-25T03:02:36.982Z,15.00
2022-10-25T03:03:43.295Z,15.01
2022-10-25T03:04:36.999Z,15.01
2022-10-25T03:05:36.921Z,15.02
2022-10-25T03:06:37.012Z,15.02
2022-10-25T03:07:36.881Z,15.03
2022-10-25T03:08:36.954Z,15.04
2022-10-25T03:09:37.459Z,15.04
2022-10-25T03:10:36.837Z,15.05
2022-10-25T03:11:36.790Z,15.05
2022-10-25T03:12:36.881Z,15.05
2022-10-25T03:13:36.796Z,15.05
2022-10-25T03:14:43.108Z,15.05
2022-10-25T03:15:36.794Z,15.05
2022-10-25T03:16:36.892Z,15.04
2022-10-25T03:17:36.774Z,15.04
2022-10-25T03:18:36.707Z,15.03
2022-10-25T03:19:36.965Z,15.03
2022-10-25T03:20:43.159Z,15.02
2022-10-25T03:21:38.815Z,15.02
2022-10-25T03:22:36.676Z,15.02
2022-10-25T03:23:36.692Z,15.02
2022-10-25T03:24:36.692Z,15.02
2022-10-25T03:25:36.653Z,15.02
2022-10-25T03:26:42.944Z,15.03
2022-10-25T03:27:36.696Z,15.03
2022-10-25T03:28:36.722Z,15.03
2022-10-25T03:29:36.675Z,15.03
2022-10-25T03:30:36.625Z,15.03
2022-10-25T03:31:36.611Z,15.03
2022-10-25T03:32:42.838Z,15.03
2022-10-25T03:33:36.570Z,15.03
2022-10-25T03:34:36.617Z,15.02
2022-10-25T03:35:36.598Z,15.02
2022-10-25T03:36:36.533Z,15.02
2022-10-25T03:37:42.887Z,15.02
2022-10-25T03:38:36.649Z,15.02
2022-10-25T03:39:36.543Z,15.02
2022-10-25T03:40:36.448Z,15.03
2022-10-25T03:41:36.462Z,15.02
2022-10-25T03:42:36.543Z,15.01
2022-10-25T03:43:42.766Z,15.00
2022-10-25T03:44:36.481Z,14.97
2022-10-25T03:45:36.539Z,14.94
2022-10-25T03:46:36.430Z,14.90
2022-10-25T03:47:36.344Z,14.86
2022-10-25T03:48:42.736Z,14.81
2022-10-25T03:49:36.372Z,14.77
2022-10-25T03:50:36.418Z,14.74
2022-10-25T03:51:36.660Z,14.71
2022-10-25T03:52:36.440Z,14.68
2022-10-25T03:53:42.637Z,14.66
2022-10-25T03:54:36.319Z,14.64
2022-10-25T03:55:37.146Z,14.63
2022-10-25T03:56:36.467Z,14.62
2022-10-25T03:57:36.315Z,14.61
2022-10-25T03:58:42.616Z,14.61
2022-10-25T03:59:36.816Z,14.60
2022-10-25T04:00:36.581Z,14.59
2022-10-25T04:01:36.380Z,14.58
2022-10-25T04:02:36.196Z,14.57
2022-10-25T04:03:43.050Z,14.56
2022-10-25T04:04:36.615Z,14.55
2022-10-25T04:05:36.151Z,14.54
2022-10-25T04:06:36.487Z,14.53
2022-10-25T04:07:36.131Z,14.52
2022-10-25T04:08:42.432Z,14.52
2022-10-25T04:09:36.256Z,14.51
2022-10-25T04:10:36.134Z,14.50
2022-10-25T04:11:36.160Z,14.50
2022-10-25T04:12:36.125Z,14.50
2022-10-25T04:13:42.416Z,14.50
2022-10-25T04:14:36.138Z,14.50
2022-10-25T04:15:36.271Z,14.50
2022-10-25T04:16:36.043Z,14.50
2022-10-25T04:17:36.015Z,14.50
2022-10-25T04:18:36.032Z,14.50
2022-10-25T04:19:42.364Z,14.51
2022-10-25T04:20:35.960Z,14.51
2022-10-25T04:21:36.025Z,14.51
2022-10-25T04:23:36.035Z,14.52
2022-10-25T04:24:35.980Z,14.53
2022-10-25T04:25:42.244Z,14.53
2022-10-25T04:26:36.054Z,14.54
2022-10-25T04:27:35.919Z,14.53
2022-10-25T04:28:35.970Z,14.53
2022-10-25T04:29:35.886Z,14.52
2022-10-25T04:30:38.028Z,14.51
2022-10-25T04:31:42.980Z,14.50
2022-10-25T04:32:35.819Z,14.49
2022-10-25T04:33:35.943Z,14.49
2022-10-25T04:34:35.837Z,14.49
2022-10-25T04:35:37.036Z,14.49
2022-10-25T04:36:42.174Z,14.48
2022-10-25T04:37:35.746Z,14.48
2022-10-25T04:38:35.763Z,14.48
2022-10-25T04:39:35.887Z,14.48
2022-10-25T04:40:36.787Z,14.49
2022-10-25T04:41:35.649Z,14.49
2022-10-25T04:42:42.390Z,14.50
2022-10-25T04:43:35.688Z,14.50
2022-10-25T04:44:35.697Z,14.51
2022-10-25T04:45:35.606Z,14.52
2022-10-25T04:46:35.611Z,14.53
2022-10-25T04:47:41.897Z,14.53
2022-10-25T04:48:35.656Z,14.53
2022-10-25T04:49:35.917Z,14.54
2022-10-25T04:50:35.730Z,14.54
2022-10-25T04:51:35.923Z,14.54
2022-10-25T04:52:35.515Z,14.54
2022-10-25T04:53:41.851Z,14.54
2022-10-25T04:54:35.515Z,14.53
2022-10-25T04:55:35.541Z,14.53
2022-10-25T04:56:35.513Z,14.52
2022-10-25T04:57:35.450Z,14.52
2022-10-25T04:58:41.839Z,14.52
2022-10-25T04:59:35.479Z,14.53
2022-10-25T05:00:35.417Z,14.53
2022-10-25T05:01:35.528Z,14.53
2022-10-25T05:02:35.467Z,14.53
2022-10-25T05:03:35.388Z,14.53
2022-10-25T05:04:41.779Z,14.53
2022-10-25T05:05:35.402Z,14.53
2022-10-25T05:06:35.320Z,14.54
2022-10-25T05:07:35.343Z,14.54
2022-10-25T05:08:35.384Z,14.55
2022-10-25T05:09:45.152Z,14.55
2022-10-25T05:10:36.881Z,14.54
2022-10-25T05:12:35.307Z,14.51
2022-10-25T05:13:35.299Z,14.50
2022-10-25T05:14:35.274Z,14.48
2022-10-25T05:15:41.521Z,14.46
2022-10-25T05:16:35.606Z,14.43
2022-10-25T05:17:35.217Z,14.41
2022-10-25T05:18:35.203Z,14.39
2022-10-25T05:19:35.229Z,14.37
2022-10-25T05:20:41.940Z,14.35
2022-10-25T05:21:35.144Z,14.33
2022-10-25T05:22:35.170Z,14.31
2022-10-25T05:23:35.218Z,14.29
2022-10-25T05:24:35.268Z,14.27
2022-10-25T05:25:42.105Z,14.25
2022-10-25T05:26:35.434Z,14.23
2022-10-25T05:27:35.133Z,14.22
2022-10-25T05:28:35.499Z,14.20
2022-10-25T05:29:35.051Z,14.19
2022-10-25T05:30:35.076Z,14.18
2022-10-25T05:31:41.714Z,14.17
2022-10-25T05:32:35.354Z,14.16
2022-10-25T05:33:35.201Z,14.15
2022-10-25T05:34:35.830Z,14.14
2022-10-25T05:35:34.970Z,14.13
2022-10-25T05:36:41.288Z,14.12
2022-10-25T05:37:35.072Z,14.11
2022-10-25T05:38:37.678Z,14.09
2022-10-25T05:39:34.956Z,14.09
2022-10-25T05:40:34.989Z,14.08
2022-10-25T05:41:37.184Z,14.08
2022-10-25T05:42:42.205Z,14.08
2022-10-25T05:43:34.868Z,14.07
2022-10-25T05:44:35.047Z,14.08
2022-10-25T05:45:34.927Z,14.08
2022-10-25T05:46:34.966Z,14.08
2022-10-25T05:47:41.398Z,14.09
2022-10-25T05:48:34.882Z,14.10
2022-10-25T05:49:34.840Z,14.10
2022-10-25T05:50:34.813Z,14.11
2022-10-25T05:51:36.573Z,14.12
2022-10-25T05:52:42.245Z,14.13
2022-10-25T05:53:34.785Z,14.14
2022-10-25T05:54:35.165Z,14.15
2022-10-25T05:55:34.780Z,14.16
2022-10-25T05:56:35.118Z,14.17
2022-10-25T05:57:41.096Z,14.17
2022-10-25T05:58:35.974Z,14.18
2022-10-25T05:59:34.816Z,14.19
2022-10-25T06:00:34.815Z,14.21
2022-10-25T06:01:36.925Z,14.22
2022-10-25T06:02:38.907Z,14.23
2022-10-25T06:03:43.621Z,14.24
2022-10-25T06:04:35.411Z,14.26
2022-10-25T06:05:34.967Z,14.27
2022-10-25T06:06:34.553Z,14.28
2022-10-25T06:07:38.672Z,14.29
2022-10-25T06:08:44.905Z,14.31
2022-10-25T06:09:34.626Z,14.33
2022-10-25T06:10:34.574Z,14.34
2022-10-25T06:11:34.674Z,14.36
2022-10-25T06:12:34.508Z,14.39
2022-10-25T06:13:34.892Z,14.42
2022-10-25T06:14:41.156Z,14.45
2022-10-25T06:15:34.481Z,14.49
2022-10-25T06:16:34.432Z,14.53
2022-10-25T06:17:34.458Z,14.56
2022-10-25T06:18:35.398Z,14.59
2022-10-25T06:19:41.002Z,14.61
2022-10-25T06:20:34.427Z,14.63
2022-10-25T06:21:34.426Z,14.64
2022-10-25T06:22:34.511Z,14.65
2022-10-25T06:23:34.994Z,14.66
2022-10-25T06:24:34.305Z,14.67
2022-10-25T06:25:40.674Z,14.68
2022-10-25T06:26:36.266Z,14.69
2022-10-25T06:27:34.961Z,14.70
2022-10-25T06:28:34.338Z,14.72
2022-10-25T06:29:34.304Z,14.73
2022-10-25T06:30:34.471Z,14.74
2022-10-25T06:31:40.861Z,14.76
2022-10-25T06:32:34.243Z,14.77
2022-10-25T06:33:35.176Z,14.79
2022-10-25T06:34:34.376Z,14.80
2022-10-25T06:35:34.917Z,14.82
2022-10-25T06:36:40.494Z,14.84
2022-10-25T06:37:34.247Z,14.86
2022-10-25T06:38:35.118Z,14.87
2022-10-25T06:39:34.188Z,14.88
2022-10-25T06:40:55.166Z,14.90
2022-10-25T06:41:34.633Z,14.91
2022-10-25T06:42:40.683Z,14.93
2022-10-25T06:43:34.115Z,14.96
2022-10-25T06:44:34.861Z,14.98
2022-10-25T06:45:34.244Z,15.00
2022-10-25T06:47:35.218Z,15.05
2022-10-25T06:48:41.394Z,15.07
2022-10-25T06:49:34.734Z,15.10
2022-10-25T06:50:34.002Z,15.12
2022-10-25T06:51:34.013Z,15.14
2022-10-25T06:52:34.082Z,15.17
2022-10-25T06:53:34.046Z,15.20
2022-10-25T06:54:40.292Z,15.22
2022-10-25T06:55:33.985Z,15.24
2022-10-25T06:56:33.989Z,15.25
2022-10-25T06:57:34.021Z,15.26
2022-10-25T06:58:34.450Z,15.28
2022-10-25T06:59:34.666Z,15.30
2022-10-25T07:00:40.740Z,15.33
2022-10-25T07:01:34.315Z,15.36
2022-10-25T07:02:33.912Z,15.38
2022-10-25T07:03:34.034Z,15.41
2022-10-25T07:04:34.178Z,15.44
2022-10-25T07:05:40.487Z,15.46
2022-10-25T07:06:33.862Z,15.49
2022-10-25T07:07:33.813Z,15.50
2022-10-25T07:08:34.082Z,15.51
2022-10-25T07:09:34.214Z,15.52
2022-10-25T07:10:33.777Z,15.53
2022-10-25T07:11:40.631Z,15.53
2022-10-25T07:12:33.729Z,15.54
2022-10-25T07:13:33.707Z,15.55
2022-10-25T07:14:33.814Z,15.57
2022-10-25T07:15:35.454Z,15.58
2022-10-25T07:16:33.727Z,15.59
2022-10-25T07:17:40.008Z,15.59
2022-10-25T07:18:33.762Z,15.60
2022-10-25T07:19:33.649Z,15.60
2022-10-25T07:20:33.970Z,15.59
2022-10-25T07:21:33.611Z,15.59
2022-10-25T07:22:41.367Z,15.61
2022-10-25T07:23:33.778Z,15.63
2022-10-25T07:24:33.861Z,15.66
2022-10-25T07:25:33.590Z,15.71
2022-10-25T07:26:33.541Z,15.75
2022-10-25T07:27:40.842Z,15.81
2022-10-25T07:28:33.548Z,15.86
2022-10-25T07:29:33.862Z,15.90
2022-10-25T07:30:35.577Z,15.92
2022-10-25T07:31:33.534Z,15.93
2022-10-25T07:32:33.454Z,15.94
2022-10-25T07:33:40.350Z,15.93
2022-10-25T07:34:33.423Z,15.91
2022-10-25T07:35:41.942Z,15.89
2022-10-25T07:36:34.913Z,15.87
2022-10-25T07:37:34.124Z,15.85
2022-10-25T07:38:33.386Z,15.83
2022-10-25T07:39:39.680Z,15.82
2022-10-25T07:40:33.384Z,15.80
2022-10-25T07:41:33.414Z,15.79
2022-10-25T07:42:33.612Z,15.77
2022-10-25T07:43:37.642Z,15.76
2022-10-25T07:44:39.923Z,15.76
2022-10-25T07:45:33.258Z,15.76
2022-10-25T07:46:33.555Z,15.76
2022-10-25T07:47:33.323Z,15.76
2022-10-25T07:48:33.645Z,15.75
2022-10-25T07:49:33.384Z,15.75
2022-10-25T07:50:40.826Z,15.75
2022-10-25T07:51:33.613Z,15.76
2022-10-25T07:52:33.255Z,15.78
2022-10-25T07:53:34.761Z,15.82
2022-10-25T07:54:33.344Z,15.88
2022-10-25T07:55:33.324Z,15.95
2022-10-25T07:56:40.469Z,16.03
2022-10-25T07:57:33.228Z,16.12
2022-10-25T07:58:33.317Z,16.21
2022-10-25T07:59:33.228Z,16.29
2022-10-25T08:00:33.146Z,16.34
2022-10-25T08:01:39.610Z,16.37
2022-10-25T08:02:33.123Z,16.36
2022-10-25T08:03:33.340Z,16.34
2022-10-25T08:04:33.569Z,16.31
2022-10-25T08:05:33.233Z,16.28
2022-10-25T08:06:40.086Z,16.25
2022-10-25T08:07:33.212Z,16.23
2022-10-25T08:08:33.295Z,16.21
2022-10-25T08:09:38.275Z,16.21
2022-10-25T08:10:34.777Z,16.23
2022-10-25T08:11:40.295Z,16.25
2022-10-25T08:12:33.057Z,16.28
2022-10-25T08:13:33.193Z,16.30
2022-10-25T08:14:35.128Z,16.31
2022-10-25T08:15:33.156Z,16.32
2022-10-25T08:16:33.079Z,16.31
2022-10-25T08:17:39.746Z,16.28
2022-10-25T08:18:34.290Z,16.24
2022-10-25T08:19:34.239Z,16.17
2022-10-25T08:20:56.797Z,16.08
2022-10-25T08:21:34.409Z,15.98
2022-10-25T08:22:33.545Z,15.89
2022-10-25T08:23:41.399Z,15.80
2022-10-25T08:24:33.170Z,15.72
2022-10-25T08:25:34.052Z,15.65
2022-10-25T08:26:36.779Z,15.60
2022-10-25T08:27:33.226Z,15.57
2022-10-25T08:28:33.986Z,15.55
2022-10-25T08:29:44.674Z,15.54
2022-10-25T08:30:33.274Z,15.53
2022-10-25T08:31:33.132Z,15.51
2022-10-25T08:32:32.947Z,15.48
2022-10-25T08:33:32.803Z,15.47
2022-10-25T08:34:33.329Z,15.46
2022-10-25T08:35:40.405Z,15.46
2022-10-25T08:36:32.762Z,15.47
2022-10-25T08:37:32.618Z,15.49
2022-10-25T08:38:33.917Z,15.52
2022-10-25T08:39:33.443Z,15.54
2022-10-25T08:40:40.121Z,15.56
2022-10-25T08:41:32.635Z,15.58
2022-10-25T08:42:32.539Z,15.59
2022-10-25T08:43:32.832Z,15.59
2022-10-25T08:44:32.567Z,15.61
2022-10-25T08:45:33.013Z,15.64
2022-10-25T08:46:39.108Z,15.69
2022-10-25T08:47:32.744Z,15.73
2022-10-25T08:48:33.213Z,15.78
2022-10-25T08:49:32.665Z,15.82
2022-10-25T08:50:32.859Z,15.86
2022-10-25T08:51:38.745Z,15.91
2022-10-25T08:52:32.628Z,15.95
2022-10-25T08:53:32.493Z,15.99
2022-10-25T08:54:32.729Z,16.02
2022-10-25T08:55:32.625Z,16.05
2022-10-25T08:56:32.577Z,16.07
2022-10-25T08:57:38.836Z,16.08
2022-10-25T08:58:32.565Z,16.10
2022-10-25T08:59:32.584Z,16.10
2022-10-25T09:00:32.732Z,16.12
2022-10-25T09:01:33.499Z,16.14
2022-10-25T09:02:40.086Z,16.16
2022-10-25T09:03:33.620Z,16.17
2022-10-25T09:04:32.448Z,16.18
2022-10-25T09:05:32.484Z,16.19
2022-10-25T09:06:33.079Z,16.19
2022-10-25T09:07:40.670Z,16.19
2022-10-25T09:08:32.452Z,16.18
2022-10-25T09:09:32.577Z,16.18
2022-10-25T09:10:32.334Z,16.20
2022-10-25T09:11:32.684Z,16.23
2022-10-25T09:12:38.613Z,16.26
2022-10-25T09:13:32.322Z,16.28
2022-10-25T09:14:32.176Z,16.30
2022-10-25T09:15:33.039Z,16.32
2022-10-25T09:16:32.284Z,16.34
2022-10-25T09:17:32.226Z,16.36
2022-10-25T09:18:38.578Z,16.39
2022-10-25T09:19:36.778Z,16.43
2022-10-25T09:20:32.127Z,16.50
2022-10-25T09:21:32.501Z,16.57
2022-10-25T09:22:32.456Z,16.64
2022-10-25T09:23:32.188Z,16.71
2022-10-25T09:24:38.402Z,16.78
2022-10-25T09:25:32.024Z,16.83
2022-10-25T09:26:32.186Z,16.88
2022-10-25T09:27:32.105Z,16.92
2022-10-25T09:28:32.109Z,16.96
2022-10-25T09:29:33.121Z,17.01
2022-10-25T09:30:41.505Z,17.05
2022-10-25T09:31:32.067Z,17.09
2022-10-25T09:32:31.967Z,17.13
2022-10-25T09:33:31.898Z,17.17
2022-10-25T09:34:31.940Z,17.19
2022-10-25T09:35:32.019Z,17.20
2022-10-25T09:36:38.244Z,17.20
2022-10-25T09:37:31.953Z,17.18
2022-10-25T09:38:31.820Z,17.14
2022-10-25T09:39:31.925Z,17.09
2022-10-25T09:40:31.857Z,17.03
2022-10-25T09:41:32.895Z,16.96
2022-10-25T09:42:38.382Z,16.89
2022-10-25T09:43:31.758Z,16.82
2022-10-25T09:44:32.041Z,16.76
2022-10-25T09:45:32.161Z,16.71
2022-10-25T09:46:31.906Z,16.66
2022-10-25T09:47:38.459Z,16.62
2022-10-25T09:48:32.021Z,16.59
2022-10-25T09:49:31.735Z,16.56
2022-10-25T09:50:31.888Z,16.53
2022-10-25T09:51:31.850Z,16.51
2022-10-25T09:52:32.782Z,16.49
2022-10-25T09:53:39.208Z,16.48
2022-10-25T09:54:32.021Z,16.48
2022-10-25T09:55:35.474Z,16.48
2022-10-25T09:56:32.153Z,16.48
2022-10-25T09:57:33.058Z,16.48
2022-10-25T09:58:38.013Z,16.48
2022-10-25T09:59:32.317Z,16.51
2022-10-25T10:00:31.954Z,16.55
2022-10-25T10:01:31.734Z,16.61
2022-10-25T10:02:37.993Z,16.69
2022-10-25T10:03:31.591Z,16.76
2022-10-25T10:04:38.292Z,16.83
2022-10-25T10:05:31.495Z,16.89
2022-10-25T10:06:31.854Z,16.95
2022-10-25T10:07:31.447Z,17.00
2022-10-25T10:08:31.457Z,17.04
2022-10-25T10:09:31.432Z,17.08
2022-10-25T10:10:38.030Z,17.12
2022-10-25T10:11:33.615Z,17.15
2022-10-25T10:12:31.429Z,17.18
2022-10-25T10:13:31.455Z,17.20
2022-10-25T10:14:31.435Z,17.22
2022-10-25T10:15:37.784Z,17.22
2022-10-25T10:16:31.695Z,17.22
2022-10-25T10:17:31.339Z,17.22
2022-10-25T10:18:31.871Z,17.23
2022-10-25T10:19:31.695Z,17.24
2022-10-25T10:20:31.444Z,17.25
2022-10-25T10:21:37.596Z,17.26
2022-10-25T10:22:31.335Z,17.28
2022-10-25T10:23:31.354Z,17.28
2022-10-25T10:24:32.295Z,17.28
2022-10-25T10:25:31.261Z,17.29
2022-10-25T10:26:31.371Z,17.30
2022-10-25T10:27:41.866Z,17.32
2022-10-25T10:28:31.172Z,17.33
2022-10-25T10:29:31.286Z,17.34
2022-10-25T10:30:31.264Z,17.32
2022-10-25T10:31:31.320Z,17.29
2022-10-25T10:32:37.936Z,17.25
2022-10-25T10:33:31.193Z,17.22
2022-10-25T10:34:31.201Z,17.17
2022-10-25T10:35:31.198Z,17.13
2022-10-25T10:36:31.081Z,17.11
2022-10-25T10:37:31.440Z,17.09
2022-10-25T10:38:37.356Z,17.08
2022-10-25T10:39:31.128Z,17.07
2022-10-25T10:40:31.042Z,17.06
2022-10-25T10:41:31.264Z,17.04
2022-10-25T10:43:31.036Z,17.02
2022-10-25T10:44:38.437Z,17.03
2022-10-25T10:45:30.985Z,17.04
2022-10-25T10:46:30.966Z,17.06
2022-10-25T10:47:30.969Z,17.09
2022-10-25T10:48:31.744Z,17.13
2022-10-25T10:49:31.021Z,17.19
2022-10-25T10:50:41.529Z,17.23
2022-10-25T10:51:43.538Z,17.26
2022-10-25T10:52:33.495Z,17.26
2022-10-25T10:53:31.042Z,17.25
2022-10-25T10:54:30.914Z,17.22
2022-10-25T10:55:30.855Z,17.20
2022-10-25T10:56:37.434Z,17.21
2022-10-25T10:57:31.050Z,17.25
2022-10-25T10:58:30.993Z,17.31
2022-10-25T10:59:30.857Z,17.38
2022-10-25T11:00:30.832Z,17.46
2022-10-25T11:01:37.659Z,17.54
2022-10-25T11:02:31.037Z,17.63
2022-10-25T11:03:30.964Z,17.73
2022-10-25T11:04:31.108Z,17.83
2022-10-25T11:05:30.991Z,17.92
2022-10-25T11:06:32.632Z,18.00
2022-10-25T11:07:37.359Z,18.07
2022-10-25T11:08:31.059Z,18.13
2022-10-25T11:09:30.708Z,18.19
2022-10-25T11:10:30.724Z,18.26
2022-10-25T11:11:30.704Z,18.33
2022-10-25T11:12:41.071Z,18.38
2022-10-25T11:13:30.882Z,18.44
2022-10-25T11:14:30.646Z,18.48
2022-10-25T11:15:30.846Z,18.53
2022-10-25T11:16:30.970Z,18.59
2022-10-25T11:17:37.127Z,18.64
2022-10-25T11:18:35.338Z,18.70
2022-10-25T11:19:30.768Z,18.75
2022-10-25T11:20:30.786Z,18.80
2022-10-25T11:21:31.042Z,18.87
2022-10-25T11:22:32.874Z,18.95
2022-10-25T11:23:37.107Z,19.02
2022-10-25T11:24:30.494Z,19.06
2022-10-25T11:25:30.548Z,19.07
2022-10-25T11:26:30.487Z,19.06
2022-10-25T11:27:33.037Z,19.04
2022-10-25T11:28:36.714Z,19.04
2022-10-25T11:29:30.493Z,19.03
2022-10-25T11:30:30.437Z,19.04
2022-10-25T11:31:31.498Z,19.03
2022-10-25T11:32:30.829Z,19.02
2022-10-25T11:33:30.382Z,19.02
2022-10-25T11:34:36.638Z,19.05
2022-10-25T11:35:30.394Z,19.10
2022-10-25T11:36:30.434Z,19.15
2022-10-25T11:37:30.339Z,19.20
2022-10-25T11:38:30.466Z,19.26
2022-10-25T11:39:30.308Z,19.31
2022-10-25T11:40:37.737Z,19.36
2022-10-25T11:41:30.246Z,19.42
2022-10-25T11:42:30.329Z,19.48
2022-10-25T11:43:30.574Z,19.54
2022-10-25T11:44:30.249Z,19.60
2022-10-25T11:45:30.654Z,19.67
2022-10-25T11:46:36.747Z,19.74
2022-10-25T11:47:30.248Z,19.80
2022-10-25T11:48:31.120Z,19.85
2022-10-25T11:49:30.176Z,19.90
2022-10-25T11:50:30.197Z,19.96
2022-10-25T11:51:36.761Z,20.02
2022-10-25T11:52:30.112Z,20.09
2022-10-25T11:53:30.099Z,20.15
2022-10-25T11:54:30.185Z,20.20
2022-10-25T11:55:30.054Z,20.25
2022-10-25T11:56:30.048Z,20.26
2022-10-25T11:57:36.337Z,20.23
2022-10-25T11:58:30.081Z,20.17
2022-10-25T11:59:30.039Z,20.10
2022-10-25T12:00:30.482Z,20.02
2022-10-25T12:01:30.138Z,19.96
2022-10-25T12:02:36.374Z,19.91
2022-10-25T12:03:30.121Z,19.89
2022-10-25T12:04:30.679Z,19.90
2022-10-25T12:05:29.979Z,19.92
2022-10-25T12:06:30.016Z,19.95
2022-10-25T12:07:36.217Z,19.98
2022-10-25T12:08:30.215Z,20.03
2022-10-25T12:09:30.202Z,20.07
2022-10-25T12:10:29.911Z,20.07
2022-10-25T12:11:30.740Z,20.07
2022-10-25T12:12:36.461Z,20.07
2022-10-25T12:13:29.926Z,20.07
2022-10-25T12:14:29.852Z,20.03
2022-10-25T12:15:29.937Z,19.97
2022-10-25T12:16:29.897Z,19.89
2022-10-25T12:17:36.129Z,19.79
2022-10-25T12:18:30.062Z,19.68
2022-10-25T12:19:29.774Z,19.58
2022-10-25T12:20:30.166Z,19.48
2022-10-25T12:21:29.721Z,19.38
2022-10-25T12:22:29.706Z,19.27
2022-10-25T12:23:36.304Z,19.18
2022-10-25T12:24:29.698Z,19.12
2022-10-25T12:25:29.843Z,19.09
2022-10-25T12:26:29.632Z,19.11
2022-10-25T12:27:29.954Z,19.18
2022-10-25T12:28:29.640Z,19.26
2022-10-25T12:29:35.927Z,19.35
2022-10-25T12:30:29.623Z,19.42
2022-10-25T12:31:29.638Z,19.50
2022-10-25T12:32:29.583Z,19.58
2022-10-25T12:33:29.563Z,19.63
2022-10-25T12:34:36.257Z,19.65
2022-10-25T12:35:29.591Z,19.66
2022-10-25T12:36:29.600Z,19.64
2022-10-25T12:37:29.618Z,19.61
2022-10-25T12:38:29.530Z,19.58
2022-10-25T12:39:29.493Z,19.58
2022-10-25T12:40:37.744Z,19.60
2022-10-25T12:41:31.033Z,19.64
2022-10-25T12:42:29.514Z,19.65
2022-10-25T12:43:29.725Z,19.63
2022-10-25T12:44:31.383Z,19.58
2022-10-25T12:45:35.802Z,19.52
2022-10-25T12:46:29.468Z,19.43
2022-10-25T12:47:29.459Z,19.33
2022-10-25T12:48:29.681Z,19.22
2022-10-25T12:49:29.462Z,19.12
2022-10-25T12:50:29.329Z,19.01
2022-10-25T12:51:37.675Z,18.91
2022-10-25T12:52:29.323Z,18.83
2022-10-25T12:53:29.652Z,18.76
2022-10-25T12:54:29.354Z,18.69
2022-10-25T12:55:29.299Z,18.61
2022-10-25T12:57:12.488Z,19.48
2022-10-25T12:58:12.323Z,19.03